Mc Williams, Alabama
Current Conditions -  °F | °C
As of 10:56 AM on Thursday 18 Dec 2014 (Local Time) from KPRN Reporting Station
Few Clouds Few Clouds  
Wind Chill: 56°   Ceiling: Unl
Heat Index: 56°   Visibility: 10mi
Dew Point: 35°   Wind: 0mph
Humidity: 45%   Direction: NA
Pressure: 30.19"   Gusts: NA
Location:  31.8356°N, 87.1016°W
Report Text: KPRN 181656Z AUTO 00000KT 10SM FEW110 13/02 A3019 RMK AO2 SLP221 T01330017
Loading
Personal Weather Stations






























Interactive Weather Map New forecast layout! Learn more

10-Day Weather Forecast

Advertisements
Track Severe Weather on mobile